Startpagina
METAR-TAF:

METAR-TAF

Vliegvelden :

Flughafen Weeze

Weeze, Duitsland

breedte: 51-36-09N, lengte: 006-08-32E, hoogte: 32 m

Actueel weer

Dit bericht is 3 uur en het 22 minuten geleden gemaakt, om 22:50 UTC
Wind 4 kt uit het oostnoordoosten, variërend tussen het noorden en het oostzuidoosten
Temperatuur 2°C
Vochtigheid 80%
Druk 1031 hPa
Zicht 10 km of meer
geen wolken onder 1500 m en geen cumulonimbus

METAR: EDLV 172250Z 06004KT 010V120 CAVOK 02/M01 Q1031

Tijdstip: 03:12 (02:12 UTC)

Verwachting

Dit bericht is 9 uur en het 12 minuten geleden gemaakt, om 17:00 UTC
Verwachting geldig van 17 om 18 UTC tot 18 om 18 UTC
Wind 6 kt uit het oostnoordoosten
Zicht 10 km of meer
geen wolken onder 1500 m en geen cumulonimbus

TAF: EDLV 171700Z 1718/1818 06006KT CAVOK

Waarnemingen en weersverwachtingen van meer dan 4000 vliegvelden (METAR en TAF).

De beschikbare stations zijn de gele en rode punten op de kaart.

Ga met uw muis naar het station om de naam te zien.

Klik dan om waarnemingen en weersverwachtingen te zien.

kaart wijzigen: klik op de groene knoppen met een zwart kruis om in te zoomen, op de groene knop met een streepje om uit te zoomen of op de groene pijlen voor aangrenzende kaarten.


METAR-TAF: